Time;durP1;ratioP1;P1;durP2;ratioP2;P2;SDS_P1;SDS_P2;PMS_P1;PMS_P2;Temp;Humidity;BMP_temperature;BMP_pressure;BME280_temperature;BME280_humidity;BME280_pressure;Samples;Min_cycle;Max_cycle;Signal;HPM_P1;HPM_P2
2023/01/07 00:01:43;;;;;;;18.67;13.63;;;11.30;99.90;;;;;;4858628;29;20060;-77
2023/01/07 00:04:14;;;;;;;14.52;12.68;;;11.40;99.90;;;;;;4859398;29;20053;-78
2023/01/07 00:06:42;;;;;;;13.52;11.23;;;11.50;99.90;;;;;;4860405;29;20061;-77
2023/01/07 00:09:12;;;;;;;12.40;10.68;;;11.60;99.90;;;;;;4848654;29;20136;-77
2023/01/07 00:11:39;;;;;;;12.02;10.02;;;11.60;99.90;;;;;;4860070;29;20049;-77
2023/01/07 00:14:07;;;;;;;13.57;11.63;;;11.60;99.90;;;;;;4859692;29;20398;-77
2023/01/07 00:16:34;;;;;;;14.85;13.25;;;11.60;99.90;;;;;;4860780;29;20053;-78
2023/01/07 00:19:02;;;;;;;16.35;13.23;;;11.60;99.90;;;;;;4858946;29;20049;-77
2023/01/07 00:21:28;;;;;;;14.60;12.52;;;11.80;99.90;;;;;;4860241;29;20438;-78
2023/01/07 00:23:55;;;;;;;;;;;11.90;99.90;;;;;;4859872;29;20053;-78
2023/01/07 00:26:22;;;;;;;14.90;12.55;;;11.90;99.90;;;;;;4860382;29;20404;-77
2023/01/07 00:28:50;;;;;;;14.02;11.57;;;12.00;99.90;;;;;;4859114;29;20117;-77
2023/01/07 00:31:21;;;;;;;13.65;11.68;;;11.90;99.90;;;;;;4861030;29;20120;-78
2023/01/07 00:36:21;;;;;;;15.60;13.50;;;12.10;99.90;;;;;;4860848;29;20061;-77
2023/01/07 00:38:52;;;;;;;14.80;12.88;;;12.40;99.90;;;;;;4843802;29;20132;-78
2023/01/07 00:41:21;;;;;;;14.80;13.18;;;12.30;99.90;;;;;;4860364;29;20049;-77
2023/01/07 00:43:47;;;;;;;13.95;12.45;;;12.40;99.90;;;;;;4843945;29;20128;-77
2023/01/07 00:46:14;;;;;;;13.77;12.27;;;12.60;99.90;;;;;;4837119;29;20546;-78
2023/01/07 00:48:40;;;;;;;13.93;12.35;;;12.50;99.90;;;;;;4851482;29;20132;-79
2023/01/07 00:51:08;;;;;;;13.55;12.15;;;12.60;99.90;;;;;;4841069;29;20038;-77
2023/01/07 00:53:33;;;;;;;11.43;10.20;;;12.80;99.90;;;;;;4857713;29;20123;-77
2023/01/07 00:55:59;;;;;;;13.25;11.85;;;12.60;99.90;;;;;;4856970;29;20061;-77
2023/01/07 00:58:25;;;;;;;12.52;10.80;;;12.80;99.90;;;;;;4844986;29;20045;-77
2023/01/07 01:01:00;;;;;;;12.57;11.32;;;12.70;99.90;;;;;;4858043;29;20072;-78
2023/01/07 01:03:27;;;;;;;11.50;10.30;;;13.00;99.90;;;;;;4860247;29;20050;-77
2023/01/07 01:05:53;;;;;;;11.90;10.70;;;13.10;99.90;;;;;;4858366;29;20135;-78
2023/01/07 01:08:20;;;;;;;11.88;10.68;;;12.80;99.90;;;;;;4858900;29;20073;-78
2023/01/07 01:10:46;;;;;;;10.63;9.52;;;12.90;99.90;;;;;;4858540;29;20494;-78
2023/01/07 01:13:14;;;;;;;10.77;9.68;;;12.90;99.90;;;;;;4827596;29;20065;-77
2023/01/07 01:15:44;;;;;;;11.23;10.02;;;13.20;99.90;;;;;;4854890;29;20049;-77
2023/01/07 01:18:10;;;;;;;11.43;10.32;;;13.20;99.90;;;;;;4859187;29;20137;-79
2023/01/07 01:20:37;;;;;;;10.95;9.80;;;13.20;99.90;;;;;;4841436;29;20045;-77
2023/01/07 01:23:03;;;;;;;10.23;9.25;;;13.00;99.90;;;;;;4857441;29;20179;-77
2023/01/07 01:25:29;;;;;;;10.32;9.32;;;13.10;99.90;;;;;;4859442;29;20046;-78
2023/01/07 01:27:55;;;;;;;10.68;9.57;;;13.10;99.90;;;;;;4859087;29;20060;-77
2023/01/07 01:30:20;;;;;;;10.30;9.25;;;13.40;99.90;;;;;;4859681;29;20049;-78
2023/01/07 01:32:46;;;;;;;10.43;9.32;;;13.30;99.90;;;;;;4859139;29;20534;-79
2023/01/07 01:35:12;;;;;;;10.20;9.20;;;13.60;99.90;;;;;;4856541;29;20042;-78
2023/01/07 01:37:38;;;;;;;10.30;9.30;;;13.60;99.90;;;;;;4839996;29;20071;-78
2023/01/07 01:40:05;;;;;;;10.70;9.60;;;13.60;99.90;;;;;;4848113;29;20052;-78
2023/01/07 01:42:32;;;;;;;10.07;9.07;;;13.80;99.90;;;;;;4843673;29;20057;-78
2023/01/07 01:45:02;;;;;;;9.27;8.38;;;13.70;99.90;;;;;;4857394;29;20505;-78
2023/01/07 01:47:33;;;;;;;10.40;9.40;;;13.60;99.90;;;;;;4859163;29;20053;-79
2023/01/07 01:50:12;;;;;;;9.70;8.80;;;14.00;99.90;;;;;;4834099;29;20065;-78
2023/01/07 01:52:53;;;;;;;9.55;8.63;;;13.60;99.90;;;;;;4840094;29;20077;-76
2023/01/07 01:55:24;;;;;;;9.73;8.75;;;13.70;99.90;;;;;;4847916;29;20137;-77
2023/01/07 01:57:54;;;;;;;10.27;9.27;;;13.90;99.90;;;;;;4858549;29;20053;-77
2023/01/07 02:00:20;;;;;;;10.50;9.50;;;14.00;99.90;;;;;;4840782;29;20102;-77
2023/01/07 02:02:51;;;;;;;10.02;9.02;;;14.30;99.90;;;;;;4837392;29;20170;-78
2023/01/07 02:05:17;;;;;;;9.65;8.73;;;13.80;99.90;;;;;;4839834;29;20041;-78
2023/01/07 02:07:43;;;;;;;8.98;8.18;;;13.90;99.90;;;;;;4855794;29;20045;-79
2023/01/07 02:10:16;;;;;;;8.43;7.63;;;14.00;99.90;;;;;;4856663;29;20045;-78
2023/01/07 02:13:05;;;;;;;10.25;9.25;;;14.20;99.90;;;;;;4842636;29;20080;-79
2023/01/07 02:15:53;;;;;;;9.65;8.75;;;14.30;99.90;;;;;;4848314;29;20045;-79
2023/01/07 02:18:27;;;;;;;9.88;8.98;;;14.00;99.90;;;;;;4857363;29;20049;-77
2023/01/07 02:21:19;;;;;;;9.57;8.68;;;14.30;99.90;;;;;;4857157;29;20049;-79
2023/01/07 02:23:57;;;;;;;10.90;9.80;;;14.20;99.90;;;;;;4857186;29;20045;-78
2023/01/07 02:26:53;;;;;;;11.30;10.25;;;14.00;99.90;;;;;;4854394;29;20046;-79
2023/01/07 02:29:39;;;;;;;11.10;10.00;;;14.50;99.90;;;;;;4840623;29;20131;-80
2023/01/07 02:32:14;;;;;;;10.32;9.32;;;14.50;99.90;;;;;;4848553;29;20117;-79
2023/01/07 02:35:05;;;;;;;11.10;10.00;;;14.10;99.90;;;;;;4856498;29;20072;-79
2023/01/07 02:37:39;;;;;;;11.55;10.45;;;14.50;99.90;;;;;;4842382;29;20053;-79
2023/01/07 02:40:12;;;;;;;11.18;10.18;;;14.50;99.90;;;;;;4852248;29;20920;-78
2023/01/07 02:43:07;;;;;;;12.13;10.50;;;14.10;99.90;;;;;;4850348;29;20478;-78
2023/01/07 02:45:44;;;;;;;13.82;12.50;;;14.50;99.90;;;;;;4835017;29;20049;-79
2023/01/07 02:48:12;;;;;;;12.30;11.05;;;14.40;99.90;;;;;;4855737;29;20129;-73
2023/01/07 02:50:38;;;;;;;13.13;11.85;;;14.20;99.90;;;;;;4854778;29;20037;-78
2023/01/07 02:53:06;;;;;;;14.13;12.82;;;14.60;99.90;;;;;;4827905;29;20081;-78
2023/01/07 02:55:59;;;;;;;13.63;12.30;;;14.60;99.90;;;;;;4855095;29;20482;-79
2023/01/07 02:58:56;;;;;;;11.85;10.52;;;14.30;99.90;;;;;;4858312;29;20105;-78
2023/01/07 03:01:42;;;;;;;13.20;11.90;;;14.20;99.90;;;;;;4871644;29;20562;-78
2023/01/07 03:04:15;;;;;;;12.50;11.30;;;14.60;99.90;;;;;;4837469;29;20057;-78
2023/01/07 03:07:04;;;;;;;14.05;12.65;;;14.40;99.90;;;;;;4848765;29;20049;-78
2023/01/07 03:09:54;;;;;;;13.02;11.73;;;14.40;99.90;;;;;;4858203;29;20042;-78
2023/01/07 03:12:39;;;;;;;12.43;11.23;;;14.30;99.90;;;;;;4844314;29;20049;-78
2023/01/07 03:15:17;;;;;;;11.80;10.70;;;14.30;99.90;;;;;;4859998;29;20422;-78
2023/01/07 03:18:02;;;;;;;13.75;12.40;;;14.40;99.90;;;;;;4833759;29;20132;-78
2023/01/07 03:20:30;;;;;;;13.73;12.38;;;14.60;99.90;;;;;;4853074;29;20508;-78
2023/01/07 03:22:57;;;;;;;14.25;12.80;;;14.60;99.90;;;;;;4855292;29;20045;-78
2023/01/07 03:25:27;;;;;;;12.80;11.60;;;14.40;99.90;;;;;;4859649;29;20049;-72
2023/01/07 03:27:54;;;;;;;12.70;11.50;;;14.30;99.90;;;;;;4843205;29;20124;-72
2023/01/07 03:30:23;;;;;;;14.25;12.85;;;14.30;99.90;;;;;;4859389;29;20462;-72
2023/01/07 03:33:10;;;;;;;13.70;12.40;;;14.30;99.90;;;;;;4856709;29;20041;-72
2023/01/07 03:35:39;;;;;;;14.15;12.75;;;14.30;99.90;;;;;;4858454;29;20502;-72
2023/01/07 03:38:06;;;;;;;13.25;11.95;;;14.30;99.90;;;;;;4858363;29;20498;-72
2023/01/07 03:40:32;;;;;;;14.15;12.75;;;14.50;99.90;;;;;;4857931;29;20121;-72
2023/01/07 03:42:58;;;;;;;13.98;12.65;;;14.50;99.90;;;;;;4829396;29;20140;-72
2023/01/07 03:45:26;;;;;;;13.07;11.77;;;14.40;99.90;;;;;;4859248;29;20045;-71
2023/01/07 03:47:55;;;;;;;13.40;12.10;;;14.40;99.90;;;;;;4858858;29;20121;-72
2023/01/07 03:50:21;;;;;;;13.52;12.18;;;14.20;99.90;;;;;;4857062;29;20397;-72
2023/01/07 03:52:48;;;;;;;12.95;11.75;;;14.20;99.90;;;;;;4855904;29;20069;-72
2023/01/07 03:55:14;;;;;;;13.40;12.20;;;14.20;99.90;;;;;;4861193;29;20048;-72
2023/01/07 03:57:39;;;;;;;14.55;13.15;;;14.30;99.90;;;;;;4855731;29;20053;-72
2023/01/07 04:00:07;;;;;;;13.07;11.80;;;14.10;99.90;;;;;;4841027;29;20057;-72
2023/01/07 04:02:33;;;;;;;13.50;11.95;;;14.20;99.90;;;;;;4841945;29;20037;-78
2023/01/07 04:04:59;;;;;;;12.27;11.07;;;14.10;99.90;;;;;;4851524;29;20112;-77
2023/01/07 04:07:24;;;;;;;13.30;11.93;;;14.00;99.90;;;;;;4872690;29;20449;-77
2023/01/07 04:09:50;;;;;;;13.18;11.88;;;14.10;99.90;;;;;;4851580;29;20045;-79
2023/01/07 04:12:17;;;;;;;11.85;10.65;;;14.00;99.90;;;;;;4844154;29;20124;-77
2023/01/07 04:14:43;;;;;;;12.80;11.40;;;14.10;99.90;;;;;;4859122;29;20049;-77
2023/01/07 04:17:09;;;;;;;13.07;11.80;;;13.90;99.90;;;;;;4872760;29;20137;-79
2023/01/07 04:19:37;;;;;;;12.10;10.90;;;13.90;99.90;;;;;;4859191;29;20050;-78
2023/01/07 04:22:06;;;;;;;12.30;11.10;;;13.90;99.90;;;;;;4842623;29;20052;-78
2023/01/07 04:24:32;;;;;;;13.60;12.07;;;13.80;99.90;;;;;;4859590;29;20049;-78
2023/01/07 04:26:58;;;;;;;12.40;11.20;;;13.80;99.90;;;;;;4855671;29;20077;-78
2023/01/07 04:29:23;;;;;;;11.93;10.73;;;13.80;99.90;;;;;;4859852;29;20042;-77
2023/01/07 04:31:49;;;;;;;12.02;10.82;;;13.70;99.90;;;;;;4843095;29;20064;-77
2023/01/07 04:34:18;;;;;;;12.50;11.23;;;13.60;99.90;;;;;;4854532;29;20105;-71
2023/01/07 04:36:44;;;;;;;13.25;11.85;;;13.60;99.90;;;;;;4859401;29;20072;-72
2023/01/07 04:39:09;;;;;;;13.50;11.98;;;13.50;99.90;;;;;;4857516;29;20505;-72
2023/01/07 04:41:35;;;;;;;13.90;11.68;;;13.50;99.90;;;;;;4842646;29;20049;-72
2023/01/07 04:44:01;;;;;;;14.57;12.63;;;13.40;99.90;;;;;;4839296;29;20097;-71
2023/01/07 04:46:26;;;;;;;11.88;10.68;;;13.30;99.90;;;;;;4855346;29;20471;-73
2023/01/07 04:48:52;;;;;;;12.52;11.27;;;13.20;99.90;;;;;;4841804;29;20113;-72
2023/01/07 04:51:20;;;;;;;13.05;11.50;;;13.20;99.90;;;;;;4844981;29;20502;-79
2023/01/07 04:53:46;;;;;;;12.90;11.50;;;13.20;99.90;;;;;;4856726;29;20064;-80
2023/01/07 04:56:12;;;;;;;14.55;11.70;;;13.10;99.90;;;;;;4842466;29;20435;-79
2023/01/07 04:58:38;;;;;;;12.32;11.02;;;13.00;99.90;;;;;;4837550;29;20054;-78
2023/01/07 05:01:05;;;;;;;14.60;11.85;;;13.00;99.90;;;;;;4844494;29;20062;-77
2023/01/07 05:03:33;;;;;;;;;;;13.00;99.90;;;;;;4857451;29;20502;-78
2023/01/07 05:05:59;;;;;;;14.48;11.85;;;13.00;99.90;;;;;;4860679;29;19924;-78
2023/01/07 05:08:25;;;;;;;;;;;12.90;99.90;;;;;;4856934;29;20041;-78
2023/01/07 05:10:51;;;;;;;14.60;11.52;;;12.90;99.90;;;;;;4829164;29;19924;-78
2023/01/07 05:13:19;;;;;;;12.85;11.43;;;12.80;99.90;;;;;;4840857;29;20071;-79
2023/01/07 05:15:46;;;;;;;13.77;10.23;;;12.80;99.90;;;;;;4835877;29;20045;-79
2023/01/07 05:18:12;;;;;;;12.70;11.45;;;12.80;99.90;;;;;;4837235;29;20140;-79
2023/01/07 05:20:37;;;;;;;13.82;11.20;;;12.70;99.90;;;;;;4856674;29;20091;-72
2023/01/07 05:23:04;;;;;;;12.60;10.57;;;12.70;99.90;;;;;;4835390;29;20115;-72
2023/01/07 05:25:31;;;;;;;12.93;10.15;;;12.60;99.90;;;;;;4851488;29;20075;-72
2023/01/07 05:27:56;;;;;;;12.15;9.77;;;12.60;99.90;;;;;;4822582;29;20460;-72
2023/01/07 05:30:22;;;;;;;12.52;11.23;;;12.50;99.90;;;;;;4833805;29;20045;-73
2023/01/07 05:32:48;;;;;;;11.82;10.55;;;12.60;99.90;;;;;;4856517;29;20132;-73
2023/01/07 05:35:14;;;;;;;12.40;11.05;;;12.50;99.90;;;;;;4857214;29;20091;-73
2023/01/07 05:37:40;;;;;;;13.27;10.77;;;12.40;99.90;;;;;;4839437;29;20407;-73
2023/01/07 05:40:06;;;;;;;11.57;10.00;;;12.50;99.90;;;;;;4856306;29;20136;-73
2023/01/07 05:42:33;;;;;;;12.40;9.93;;;12.50;99.90;;;;;;4855321;29;20541;-72
2023/01/07 05:44:59;;;;;;;10.90;9.75;;;12.50;99.90;;;;;;4857421;29;20053;-72
2023/01/07 05:47:24;;;;;;;11.30;10.13;;;12.40;99.90;;;;;;4817982;29;20521;-72
2023/01/07 05:49:50;;;;;;;10.93;9.23;;;12.40;99.90;;;;;;4855768;29;20346;-73
2023/01/07 05:52:16;;;;;;;11.35;9.43;;;12.40;99.90;;;;;;4841186;29;20068;-78
2023/01/07 05:54:41;;;;;;;9.77;8.70;;;12.40;99.90;;;;;;4856465;29;20516;-78
2023/01/07 05:57:07;;;;;;;10.43;9.32;;;12.40;99.90;;;;;;4857711;29;20053;-77
2023/01/07 05:59:34;;;;;;;10.68;9.52;;;12.40;99.90;;;;;;4827237;29;20066;-78
2023/01/07 06:02:00;;;;;;;11.20;9.52;;;12.30;99.90;;;;;;4861467;29;20068;-77
2023/01/07 06:04:26;;;;;;;;;;;12.30;99.90;;;;;;4851848;29;20120;-77
2023/01/07 06:06:52;;;;;;;10.40;9.00;;;12.30;99.90;;;;;;4857022;29;20011;-77
2023/01/07 06:09:17;;;;;;;9.60;8.63;;;12.30;99.90;;;;;;4857516;29;20061;-78
2023/01/07 06:11:43;;;;;;;9.88;7.93;;;12.20;99.90;;;;;;4840741;29;20060;-77
2023/01/07 06:14:09;;;;;;;8.75;7.70;;;12.10;99.90;;;;;;4843579;29;20045;-77
2023/01/07 06:16:35;;;;;;;7.63;6.70;;;12.10;99.90;;;;;;4856667;29;20067;-78
2023/01/07 06:19:01;;;;;;;10.45;7.15;;;12.10;99.90;;;;;;4857090;29;20052;-78
2023/01/07 06:21:27;;;;;;;9.10;7.13;;;12.10;99.90;;;;;;4817226;29;20523;-78
2023/01/07 06:23:52;;;;;;;9.18;7.55;;;12.00;99.90;;;;;;4825492;29;20049;-78
2023/01/07 06:26:18;;;;;;;9.75;6.70;;;12.00;99.90;;;;;;4833422;29;20130;-78
2023/01/07 06:28:44;;;;;;;9.45;7.18;;;12.00;99.90;;;;;;4851679;29;20041;-77
2023/01/07 06:31:10;;;;;;;10.10;7.05;;;12.00;99.90;;;;;;4834857;29;20128;-76
2023/01/07 06:33:36;;;;;;;8.57;7.10;;;11.90;99.90;;;;;;4839288;29;20053;-77
2023/01/07 06:36:03;;;;;;;7.40;6.47;;;11.90;99.90;;;;;;4856638;29;20049;-77
2023/01/07 06:38:29;;;;;;;8.05;7.18;;;11.90;99.90;;;;;;4855966;29;20484;-77
2023/01/07 06:40:57;;;;;;;8.48;7.13;;;11.90;99.90;;;;;;4851868;29;20472;-77
2023/01/07 06:43:23;;;;;;;7.15;6.20;;;11.90;99.90;;;;;;4842091;29;20042;-77
2023/01/07 06:45:49;;;;;;;9.13;6.88;;;11.90;99.90;;;;;;4852453;29;20068;-76
2023/01/07 06:48:15;;;;;;;8.60;7.35;;;11.80;99.90;;;;;;4851229;29;20049;-77
2023/01/07 06:50:41;;;;;;;8.73;6.60;;;11.80;99.90;;;;;;4851593;29;20045;-77
2023/01/07 06:53:07;;;;;;;10.02;7.07;;;11.80;99.90;;;;;;4838388;29;20182;-78
2023/01/07 06:55:32;;;;;;;8.93;6.60;;;11.80;99.90;;;;;;4831357;29;20108;-78
2023/01/07 06:57:58;;;;;;;9.07;6.45;;;11.80;99.90;;;;;;4841636;29;20053;-78
2023/01/07 07:00:24;;;;;;;7.97;6.80;;;11.80;99.90;;;;;;4854282;29;20061;-78
2023/01/07 07:02:49;;;;;;;7.38;6.45;;;11.90;99.90;;;;;;4855251;29;20121;-78
2023/01/07 07:05:15;;;;;;;6.97;5.95;;;11.80;99.90;;;;;;4840841;29;20049;-78
2023/01/07 07:07:41;;;;;;;8.13;6.35;;;11.80;99.90;;;;;;4841610;29;20049;-78
2023/01/07 07:10:07;;;;;;;8.88;6.45;;;11.80;99.90;;;;;;4839680;29;20396;-78
2023/01/07 07:12:34;;;;;;;11.57;7.28;;;11.80;99.90;;;;;;4855960;29;20045;-77
2023/01/07 07:15:00;;;;;;;8.05;6.32;;;11.80;99.90;;;;;;4840328;29;20078;-78
2023/01/07 07:17:26;;;;;;;6.75;6.05;;;11.80;99.90;;;;;;4841398;29;20084;-78
2023/01/07 07:19:51;;;;;;;7.55;6.10;;;11.80;99.90;;;;;;4849918;29;20129;-78
2023/01/07 07:22:17;;;;;;;6.68;5.78;;;11.80;99.90;;;;;;4855333;29;20468;-77
2023/01/07 07:24:43;;;;;;;8.75;6.60;;;11.80;99.90;;;;;;4839372;29;20059;-78
2023/01/07 07:27:08;;;;;;;6.75;5.10;;;11.80;99.90;;;;;;4856103;29;20506;-78
2023/01/07 07:29:34;;;;;;;8.02;5.70;;;11.80;99.90;;;;;;4851100;29;20121;-77
2023/01/07 07:32:00;;;;;;;7.97;6.10;;;11.80;99.90;;;;;;4834663;29;20046;-78
2023/01/07 07:34:25;;;;;;;8.60;6.00;;;11.80;99.90;;;;;;4837962;29;20496;-77
2023/01/07 07:36:51;;;;;;;9.00;6.22;;;11.80;99.90;;;;;;4832168;29;20157;-78
2023/01/07 07:39:17;;;;;;;9.52;6.15;;;11.80;99.90;;;;;;4837149;29;20078;-77
2023/01/07 07:41:42;;;;;;;9.38;6.43;;;11.80;99.90;;;;;;4852089;29;20129;-77
2023/01/07 07:44:08;;;;;;;7.00;5.40;;;11.80;99.90;;;;;;4838861;29;20051;-77
2023/01/07 07:46:34;;;;;;;6.22;5.13;;;11.80;99.90;;;;;;4856354;29;20102;-78
2023/01/07 07:48:59;;;;;;;9.40;5.93;;;11.70;99.90;;;;;;4854773;29;20046;-77
2023/01/07 07:51:25;;;;;;;7.88;5.43;;;11.80;99.90;;;;;;4842859;29;20397;-77
2023/01/07 07:53:51;;;;;;;6.15;5.50;;;11.70;99.90;;;;;;4848198;29;20053;-77
2023/01/07 07:56:16;;;;;;;6.90;5.82;;;11.70;99.90;;;;;;4856513;29;20517;-78
2023/01/07 07:58:42;;;;;;;6.07;5.22;;;11.70;99.90;;;;;;4858167;29;20049;-78
2023/01/07 08:01:09;;;;;;;7.80;5.65;;;11.70;99.90;;;;;;4858002;29;20057;-78
2023/01/07 08:03:35;;;;;;;6.50;5.32;;;11.70;99.90;;;;;;4860543;29;20041;-78
2023/01/07 08:06:03;;;;;;;5.88;5.15;;;11.70;99.90;;;;;;4855835;29;20596;-78
2023/01/07 08:08:29;;;;;;;5.43;4.70;;;11.70;99.90;;;;;;4843296;29;20109;-78
2023/01/07 08:10:55;;;;;;;5.97;4.60;;;11.70;99.90;;;;;;4835127;29;20494;-76
2023/01/07 08:13:22;;;;;;;5.25;4.18;;;11.60;99.90;;;;;;4856443;29;20053;-77
2023/01/07 08:15:50;;;;;;;6.63;4.53;;;11.60;99.90;;;;;;4841690;29;20057;-77
2023/01/07 08:18:19;;;;;;;4.90;4.22;;;11.60;99.90;;;;;;4846984;29;20271;-76
2023/01/07 08:20:46;;;;;;;6.53;4.68;;;11.50;99.90;;;;;;4851155;29;20432;-77
2023/01/07 08:23:12;;;;;;;6.00;4.10;;;11.60;99.90;;;;;;4853259;29;20053;-77
2023/01/07 08:25:38;;;;;;;6.07;4.05;;;11.50;99.90;;;;;;4858922;29;20090;-77
2023/01/07 08:28:04;;;;;;;4.78;4.13;;;11.50;99.90;;;;;;4843659;29;20200;-77
2023/01/07 08:30:29;;;;;;;8.27;4.13;;;11.50;99.90;;;;;;4856991;29;20376;-75
2023/01/07 08:32:56;;;;;;;4.05;3.65;;;11.40;99.90;;;;;;4858968;29;20050;-75
2023/01/07 08:35:22;;;;;;;;;;;11.40;99.90;;;;;;4853579;29;20045;-77
2023/01/07 08:37:48;;;;;;;5.75;4.28;;;11.40;99.90;;;;;;4856263;29;20284;-78
2023/01/07 08:40:17;;;;;;;4.68;3.80;;;11.40;99.90;;;;;;4836157;29;20081;-77
2023/01/07 08:42:42;;;;;;;6.68;4.22;;;11.40;99.90;;;;;;4835297;29;20428;-77
2023/01/07 08:45:11;;;;;;;6.07;4.45;;;11.40;99.90;;;;;;4870558;29;20049;-79
2023/01/07 08:47:37;;;;;;;4.97;3.78;;;11.40;99.90;;;;;;4853446;29;20058;-77
2023/01/07 08:50:03;;;;;;;5.35;4.10;;;11.40;99.90;;;;;;4850980;29;20117;-77
2023/01/07 08:52:29;;;;;;;5.40;3.90;;;11.40;99.90;;;;;;4837302;29;20081;-77
2023/01/07 08:54:55;;;;;;;4.78;3.65;;;11.40;99.90;;;;;;4850775;29;20625;-77
2023/01/07 08:57:20;;;;;;;4.40;3.33;;;11.40;99.90;;;;;;4822605;29;20049;-79
2023/01/07 08:59:48;;;;;;;5.07;3.60;;;11.40;99.90;;;;;;4828896;29;20057;-77
2023/01/07 09:02:16;;;;;;;4.45;3.45;;;11.40;99.90;;;;;;4849728;29;20160;-76
2023/01/07 09:04:42;;;;;;;3.90;3.20;;;11.40;99.90;;;;;;4854722;29;20053;-76
2023/01/07 09:07:08;;;;;;;3.65;2.90;;;11.40;99.90;;;;;;4855098;29;20056;-77
2023/01/07 09:09:35;;;;;;;4.10;3.45;;;11.40;99.90;;;;;;4839628;29;20046;-76
2023/01/07 09:12:01;;;;;;;5.82;3.50;;;11.40;99.90;;;;;;4855924;29;20049;-76
2023/01/07 09:14:27;;;;;;;5.72;3.15;;;11.40;99.90;;;;;;4854724;29;20087;-77
2023/01/07 09:16:53;;;;;;;4.55;3.13;;;11.40;99.90;;;;;;4839005;29;20081;-76
2023/01/07 09:19:19;;;;;;;4.75;3.30;;;11.40;99.90;;;;;;4856184;29;20102;-76
2023/01/07 09:21:44;;;;;;;4.30;3.40;;;11.30;99.90;;;;;;4841235;29;20409;-77
2023/01/07 09:24:10;;;;;;;4.85;3.10;;;11.30;99.90;;;;;;4856507;29;20084;-77
2023/01/07 09:26:36;;;;;;;4.13;3.00;;;11.30;99.90;;;;;;4865291;29;20063;-76
2023/01/07 09:29:02;;;;;;;3.60;2.92;;;11.30;99.90;;;;;;4863928;29;20136;-77
2023/01/07 09:31:28;;;;;;;4.30;2.88;;;11.30;99.90;;;;;;4859014;29;20078;-76
2023/01/07 09:33:53;;;;;;;4.80;3.22;;;11.30;99.90;;;;;;4854367;29;20125;-76
2023/01/07 09:36:19;;;;;;;4.05;3.10;;;11.30;99.90;;;;;;4843046;29;20081;-77
2023/01/07 09:38:45;;;;;;;4.97;3.00;;;11.30;99.90;;;;;;4857740;29;20102;-76
2023/01/07 09:41:46;;;;;;;4.20;3.03;;;11.30;99.90;;;;;;4833790;29;20046;-77
2023/01/07 09:44:17;;;;;;;3.67;3.03;;;11.30;99.90;;;;;;4849584;29;20060;-77
2023/01/07 09:46:44;;;;;;;5.47;3.15;;;11.30;99.90;;;;;;4840059;29;20448;-78
2023/01/07 09:49:17;;;;;;;3.72;2.85;;;11.30;99.90;;;;;;4846975;29;20449;-78
2023/01/07 09:51:52;;;;;;;3.35;2.80;;;11.20;99.90;;;;;;4851098;29;20039;-77
2023/01/07 09:54:35;;;;;;;4.32;3.00;;;11.20;99.90;;;;;;4854355;29;20121;-76
2023/01/07 09:57:02;;;;;;;4.43;3.10;;;11.20;99.90;;;;;;4852194;29;20060;-77
2023/01/07 09:59:28;;;;;;;3.38;2.72;;;11.30;99.90;;;;;;4841688;29;20137;-78
2023/01/07 10:02:26;;;;;;;3.50;2.92;;;11.30;99.90;;;;;;4826040;29;20536;-77
2023/01/07 10:05:18;;;;;;;3.65;2.63;;;11.20;99.90;;;;;;4845805;29;20057;-71
2023/01/07 10:07:54;;;;;;;4.18;2.67;;;11.20;99.90;;;;;;4845888;29;20050;-71
2023/01/07 10:10:56;;;;;;;4.10;2.60;;;11.20;99.90;;;;;;4833078;29;20526;-71
2023/01/07 10:13:34;;;;;;;3.72;2.67;;;11.10;99.90;;;;;;4854829;29;20061;-71
2023/01/07 10:16:02;;;;;;;3.30;2.70;;;11.10;99.90;;;;;;4829640;29;20127;-71
2023/01/07 10:19:03;;;;;;;2.90;2.30;;;11.10;99.90;;;;;;4848058;29;20152;-72
2023/01/07 10:22:06;;;;;;;4.07;2.42;;;11.00;99.90;;;;;;4854740;29;20048;-70
2023/01/07 10:24:41;;;;;;;4.82;2.53;;;11.10;99.90;;;;;;4855806;29;20410;-71
2023/01/07 10:27:11;;;;;;;4.43;2.55;;;11.10;99.90;;;;;;4849053;29;20171;-71
2023/01/07 10:29:47;;;;;;;3.25;2.53;;;11.00;99.90;;;;;;4840822;29;20409;-71
2023/01/07 10:32:22;;;;;;;3.53;2.50;;;11.10;99.90;;;;;;4856906;29;20057;-71
2023/01/07 10:34:54;;;;;;;4.05;2.40;;;11.10;99.90;;;;;;4855787;29;20056;-71
2023/01/07 10:37:36;;;;;;;3.10;2.33;;;11.10;99.90;;;;;;4835594;29;20049;-71
2023/01/07 10:40:41;;;;;;;3.72;2.47;;;11.10;99.90;;;;;;4852135;29;20049;-71
2023/01/07 10:43:44;;;;;;;3.95;2.10;;;11.10;99.90;;;;;;4847634;29;20132;-70
2023/01/07 10:46:48;;;;;;;2.83;2.05;;;11.00;99.90;;;;;;4853994;29;20494;-69
2023/01/07 10:49:30;;;;;;;3.42;2.38;;;11.00;99.90;;;;;;4788656;29;20045;-71
2023/01/07 10:52:30;;;;;;;3.58;2.35;;;11.00;99.90;;;;;;4801620;29;20082;-71
2023/01/07 10:55:34;;;;;;;4.10;2.55;;;11.00;99.90;;;;;;4854528;29;20241;-70
2023/01/07 10:58:02;;;;;;;2.80;2.15;;;11.10;99.90;;;;;;4816461;29;20139;-70
2023/01/07 11:00:27;;;;;;;2.67;2.00;;;11.20;99.90;;;;;;4842123;29;20561;-70
2023/01/07 11:02:57;;;;;;;2.78;2.28;;;11.20;99.90;;;;;;4835358;29;20065;-71
2023/01/07 11:05:31;;;;;;;3.30;2.00;;;11.20;99.90;;;;;;4851090;29;20462;-71
2023/01/07 11:08:00;;;;;;;2.55;2.03;;;11.20;99.90;;;;;;4837813;29;20529;-77
2023/01/07 11:10:30;;;;;;;6.25;2.20;;;11.20;99.90;;;;;;4829497;29;20489;-77
2023/01/07 11:13:07;;;;;;;2.83;1.80;;;11.20;99.90;;;;;;4839371;29;20056;-77
2023/01/07 11:15:43;;;;;;;3.33;1.90;;;11.20;99.90;;;;;;4834613;29;20041;-77
2023/01/07 11:18:20;;;;;;;3.45;2.28;;;11.20;99.90;;;;;;4851659;29;20149;-77
2023/01/07 11:20:55;;;;;;;2.58;1.70;;;11.30;99.90;;;;;;4848607;29;20046;-77
2023/01/07 11:23:42;;;;;;;2.72;1.67;;;11.30;99.90;;;;;;4851413;29;20060;-76
2023/01/07 11:26:33;;;;;;;2.97;1.73;;;11.40;99.90;;;;;;4852311;29;20068;-77
2023/01/07 11:29:13;;;;;;;3.28;1.70;;;11.30;99.90;;;;;;4852381;29;20053;-77
2023/01/07 11:31:51;;;;;;;2.45;1.77;;;11.40;99.90;;;;;;4855151;29;20097;-76
2023/01/07 11:34:21;;;;;;;2.25;1.70;;;11.40;99.90;;;;;;4860147;29;20094;-77
2023/01/07 11:36:47;;;;;;;2.25;1.60;;;11.40;99.90;;;;;;4853255;29;20502;-76
2023/01/07 11:39:42;;;;;;;1.65;1.50;;;11.50;99.90;;;;;;4841596;29;20061;-74
2023/01/07 11:45:22;;;;;;;3.40;1.70;;;11.50;99.90;;;;;;4857781;29;20199;-76
2023/01/07 11:47:59;;;;;;;1.75;1.42;;;11.50;99.90;;;;;;4859537;29;20054;-78
2023/01/07 11:50:43;;;;;;;3.20;1.60;;;11.50;99.90;;;;;;4857459;29;20046;-76
2023/01/07 11:53:15;;;;;;;3.55;1.50;;;11.50;99.90;;;;;;4857303;29;20051;-75
2023/01/07 11:56:06;;;;;;;2.10;1.50;;;11.50;99.90;;;;;;4857600;29;20569;-76
2023/01/07 11:58:37;;;;;;;3.30;1.58;;;11.50;99.90;;;;;;4855267;29;20138;-76
2023/01/07 12:01:09;;;;;;;3.92;1.88;;;11.50;99.90;;;;;;4833462;29;20061;-74
2023/01/07 12:03:36;;;;;;;2.75;1.60;;;11.50;99.90;;;;;;4850675;29;20042;-77
2023/01/07 12:06:24;;;;;;;2.92;1.52;;;11.40;99.90;;;;;;4860882;29;20053;-77
2023/01/07 12:09:11;;;;;;;3.38;1.77;;;11.40;99.90;;;;;;4849461;29;20066;-77
2023/01/07 12:11:40;;;;;;;2.60;1.50;;;11.40;99.90;;;;;;4845585;29;20037;-77
2023/01/07 12:14:15;;;;;;;2.55;1.35;;;11.40;99.90;;;;;;4860667;29;20390;-77
2023/01/07 12:16:45;;;;;;;2.75;1.50;;;11.40;99.90;;;;;;4856653;29;20049;-77
2023/01/07 12:19:38;;;;;;;4.03;1.40;;;11.40;99.90;;;;;;4860597;29;20128;-77
2023/01/07 12:22:17;;;;;;;2.30;1.40;;;11.40;99.90;;;;;;4830871;29;20399;-77
2023/01/07 12:25:07;;;;;;;2.85;1.40;;;11.40;99.90;;;;;;4841796;29;20475;-77
2023/01/07 12:27:56;;;;;;;2.83;1.55;;;11.40;99.90;;;;;;4855610;29;20050;-77
2023/01/07 12:30:34;;;;;;;1.85;1.23;;;11.50;99.90;;;;;;4859695;29;20106;-77
2023/01/07 12:33:39;;;;;;;1.67;1.20;;;11.60;99.90;;;;;;4857738;29;20045;-78
2023/01/07 12:36:14;;;;;;;1.67;1.38;;;11.70;99.90;;;;;;4844030;29;20064;-71
2023/01/07 12:38:54;;;;;;;2.03;1.40;;;11.90;99.90;;;;;;4841426;29;20112;-72
2023/01/07 12:41:25;;;;;;;3.08;1.42;;;11.90;99.90;;;;;;4844396;29;20509;-72
2023/01/07 12:43:57;;;;;;;2.90;1.40;;;11.90;99.90;;;;;;4841410;29;20193;-72
2023/01/07 12:46:27;;;;;;;1.80;1.20;;;11.90;99.90;;;;;;4851503;29;20058;-72
2023/01/07 12:49:09;;;;;;;1.20;1.10;;;12.00;99.90;;;;;;4856862;29;20054;-72
2023/01/07 12:52:03;;;;;;;2.22;1.55;;;11.90;99.90;;;;;;4854930;29;20166;-72
2023/01/07 12:54:53;;;;;;;2.83;1.20;;;12.00;99.90;;;;;;4859998;29;20048;-72
2023/01/07 12:57:21;;;;;;;3.83;1.30;;;12.00;99.90;;;;;;4858109;29;20128;-72
2023/01/07 13:00:14;;;;;;;2.33;1.27;;;11.90;99.30;;;;;;4857627;29;20100;-71
2023/01/07 13:02:47;;;;;;;1.85;1.10;;;11.90;97.80;;;;;;4856767;29;20067;-72
2023/01/07 13:05:22;;;;;;;1.55;1.08;;;11.90;98.10;;;;;;4858126;29;20049;-72
2023/01/07 13:08:14;;;;;;;1.30;1.10;;;11.90;97.80;;;;;;4856377;29;20049;-71